Accueil
METAR-TAF:

METAR-TAF

Aéroports :

Saragosse, Espagne

Aéroport de Saragosse

latitude: 41-40N, longitude: 001-01W, altitude: 263 m

Observation

Le bulletin a été fait il y a 30 minutes, à 18:00 UTC
Vent 9 kt de ouest/nord-ouest
Température 6°C
Humidité 81%
Pression 1024 hPa
Visibilité 10 km ou plus
Quelques nuages à une hauteur de 4000 ft

METAR: LEZG 161800Z 29009KT 9999 FEW040 06/03 Q1024

Heure: 19:30 (18:30 UTC)

Prévision

Le bulletin a été fait il y a 1 heure et 30 minutes, à 17:00 UTC
Prévision valable du 16 à 18 UTC au 17 à 18 UTC
Vent 14 kt de ouest/nord-ouest
Visibilité 10 km ou plus
Quelques nuages à une hauteur de 4000 ft
Temporairement
du 16 à 18 UTC au 17 à 18 UTC
Vent 20 kt de ouest/nord-ouest avec des rafales jusqu'à 30 kt

TAF: LEZG 161700Z 1618/1718 30014KT 9999 FEW040 TX12/1713Z TN03/1706Z TEMPO 1618/1718 30020G30KT

Observations et prévisions météorologiques de plus de 4000 aéroports (messages METAR et TAF).

Les stations disponibles sont représentées par des disques jaunes et rouges sur la carte.

Passer la souris dessus pour voir le nom de la station.

Cliquer dessus pour voir les observations et prévisions météorologiques.

Pour changer de carte: cliquez sur les boutons verts avec une croix noire pour zoomer, sur le bouton vert avec un tiret pour effectuer un zoom arrière, ou sur les flèches vertes pour les cartes adjacentes.


METAR-TAF: